Congresbury, United Kingdom
Current Conditions -  °F | °C
As of 1:20 AM on Thursday 27 Nov 2014 (Local Time) from EGGD Reporting Station
Haze Haze  
Wind Chill: 43°   Ceiling: 200
Heat Index: 43°   Visibility: 0.68mi
Dew Point: 43°   Wind: 2mph
Humidity: 100%   Direction: 20°NNE
Pressure: 29.68"   Gusts: NA
Location:  51.37°N, 2.81°W
Report Text: EGGD 270120Z 02002KT 1100 R27/P1500 BR BKN002 06/06 Q1005
Loading
Personal Weather Stations






























Interactive Weather Map New forecast layout! Learn more

10-Day Weather Forecast

Advertisements
Track Severe Weather on mobile